sensor_id;sensor_type;location;lat;lon;timestamp;pressure;altitude;pressure_sealevel;temperature;humidity
23261;BME280;11799;47.740;-3.390;2024-01-15T00:01:43;101063.22;;;3.77;100.00
23261;BME280;11799;47.740;-3.390;2024-01-15T00:04:09;101065.47;;;3.65;100.00
23261;BME280;11799;47.740;-3.390;2024-01-15T00:06:35;101051.16;;;3.74;100.00
23261;BME280;11799;47.740;-3.390;2024-01-15T00:09:00;101042.63;;;3.71;100.00
23261;BME280;11799;47.740;-3.390;2024-01-15T00:11:26;101053.84;;;3.73;100.00
23261;BME280;11799;47.740;-3.390;2024-01-15T00:13:52;101050.44;;;3.71;100.00
23261;BME280;11799;47.740;-3.390;2024-01-15T00:16:17;101047.56;;;3.77;100.00
23261;BME280;11799;47.740;-3.390;2024-01-15T00:18:43;101049.31;;;3.76;100.00
23261;BME280;11799;47.740;-3.390;2024-01-15T00:21:08;101038.72;;;3.79;100.00
23261;BME280;11799;47.740;-3.390;2024-01-15T00:23:34;101048.19;;;3.82;100.00
23261;BME280;11799;47.740;-3.390;2024-01-15T00:25:59;101038.88;;;3.76;100.00
23261;BME280;11799;47.740;-3.390;2024-01-15T00:28:25;101037.25;;;3.74;100.00
23261;BME280;11799;47.740;-3.390;2024-01-15T00:30:51;101043.41;;;3.73;100.00
23261;BME280;11799;47.740;-3.390;2024-01-15T00:33:17;101040.00;;;3.71;100.00
23261;BME280;11799;47.740;-3.390;2024-01-15T00:35:42;101033.78;;;3.73;100.00
23261;BME280;11799;47.740;-3.390;2024-01-15T00:38:08;101030.47;;;3.70;100.00
23261;BME280;11799;47.740;-3.390;2024-01-15T00:40:33;101016.69;;;3.66;100.00
23261;BME280;11799;47.740;-3.390;2024-01-15T00:42:59;101025.94;;;3.73;100.00
23261;BME280;11799;47.740;-3.390;2024-01-15T00:45:24;101020.81;;;3.72;100.00
23261;BME280;11799;47.740;-3.390;2024-01-15T00:47:50;101017.19;;;3.74;100.00
23261;BME280;11799;47.740;-3.390;2024-01-15T00:50:15;101012.03;;;3.73;100.00
23261;BME280;11799;47.740;-3.390;2024-01-15T00:52:41;101004.44;;;3.68;100.00
23261;BME280;11799;47.740;-3.390;2024-01-15T00:55:07;101004.28;;;3.71;100.00
23261;BME280;11799;47.740;-3.390;2024-01-15T00:57:32;101005.75;;;3.77;100.00
23261;BME280;11799;47.740;-3.390;2024-01-15T00:59:58;101005.75;;;3.77;100.00
23261;BME280;11799;47.740;-3.390;2024-01-15T01:02:24;101006.81;;;3.73;100.00
23261;BME280;11799;47.740;-3.390;2024-01-15T01:04:49;101010.22;;;3.75;100.00
23261;BME280;11799;47.740;-3.390;2024-01-15T01:07:15;101009.72;;;3.67;100.00
23261;BME280;11799;47.740;-3.390;2024-01-15T01:09:40;101002.81;;;3.65;100.00
23261;BME280;11799;47.740;-3.390;2024-01-15T01:12:06;100992.06;;;3.72;100.00
23261;BME280;11799;47.740;-3.390;2024-01-15T01:14:32;100983.47;;;3.70;100.00
23261;BME280;11799;47.740;-3.390;2024-01-15T01:16:57;100987.75;;;3.71;100.00
23261;BME280;11799;47.740;-3.390;2024-01-15T01:19:23;100992.91;;;3.72;100.00
23261;BME280;11799;47.740;-3.390;2024-01-15T01:21:50;100985.28;;;3.68;100.00
23261;BME280;11799;47.740;-3.390;2024-01-15T01:24:16;100979.44;;;3.62;100.00
23261;BME280;11799;47.740;-3.390;2024-01-15T01:26:42;100983.81;;;3.62;100.00
23261;BME280;11799;47.740;-3.390;2024-01-15T01:29:07;100985.38;;;3.66;100.00
23261;BME280;11799;47.740;-3.390;2024-01-15T01:31:33;100990.66;;;3.64;100.00
23261;BME280;11799;47.740;-3.390;2024-01-15T01:33:59;100987.28;;;3.62;100.00
23261;BME280;11799;47.740;-3.390;2024-01-15T01:36:24;100983.38;;;3.71;100.00
23261;BME280;11799;47.740;-3.390;2024-01-15T01:38:50;100988.47;;;3.74;100.00
23261;BME280;11799;47.740;-3.390;2024-01-15T01:41:15;100986.78;;;3.73;100.00
23261;BME280;11799;47.740;-3.390;2024-01-15T01:43:41;100981.47;;;3.75;100.00
23261;BME280;11799;47.740;-3.390;2024-01-15T01:46:07;100978.78;;;3.76;100.00
23261;BME280;11799;47.740;-3.390;2024-01-15T01:48:33;100975.34;;;3.76;100.00
23261;BME280;11799;47.740;-3.390;2024-01-15T01:51:00;100973.72;;;3.73;100.00
23261;BME280;11799;47.740;-3.390;2024-01-15T01:53:28;100973.94;;;3.69;100.00
23261;BME280;11799;47.740;-3.390;2024-01-15T01:55:56;100978.44;;;3.65;100.00
23261;BME280;11799;47.740;-3.390;2024-01-15T01:58:22;100972.31;;;3.66;100.00
23261;BME280;11799;47.740;-3.390;2024-01-15T02:00:48;100964.31;;;3.69;100.00
23261;BME280;11799;47.740;-3.390;2024-01-15T02:03:14;100965.31;;;3.67;100.00
23261;BME280;11799;47.740;-3.390;2024-01-15T02:05:42;100960.16;;;3.65;100.00
23261;BME280;11799;47.740;-3.390;2024-01-15T02:08:08;100952.31;;;3.65;100.00
23261;BME280;11799;47.740;-3.390;2024-01-15T02:10:33;100941.19;;;3.61;100.00
23261;BME280;11799;47.740;-3.390;2024-01-15T02:12:59;100955.72;;;3.67;100.00
23261;BME280;11799;47.740;-3.390;2024-01-15T02:15:25;100964.31;;;3.69;100.00
23261;BME280;11799;47.740;-3.390;2024-01-15T02:20:22;100966.88;;;3.71;100.00
23261;BME280;11799;47.740;-3.390;2024-01-15T02:22:47;100974.69;;;3.71;100.00
23261;BME280;11799;47.740;-3.390;2024-01-15T02:25:13;100980.69;;;3.73;100.00
23261;BME280;11799;47.740;-3.390;2024-01-15T02:27:38;100971.16;;;3.72;100.00
23261;BME280;11799;47.740;-3.390;2024-01-15T02:30:05;100973.94;;;3.69;100.00
23261;BME280;11799;47.740;-3.390;2024-01-15T02:32:31;100966.09;;;3.69;100.00
23261;BME280;11799;47.740;-3.390;2024-01-15T02:34:57;100968.63;;;3.70;100.00
23261;BME280;11799;47.740;-3.390;2024-01-15T02:37:22;100967.66;;;3.73;100.00
23261;BME280;11799;47.740;-3.390;2024-01-15T02:39:48;100965.94;;;3.72;100.00
23261;BME280;11799;47.740;-3.390;2024-01-15T02:42:13;100960.03;;;3.68;100.00
23261;BME280;11799;47.740;-3.390;2024-01-15T02:44:38;100956.50;;;3.69;100.00
23261;BME280;11799;47.740;-3.390;2024-01-15T02:47:04;100948.88;;;3.64;100.00
23261;BME280;11799;47.740;-3.390;2024-01-15T02:49:30;100945.41;;;3.64;100.00
23261;BME280;11799;47.740;-3.390;2024-01-15T02:51:57;100942.72;;;3.65;100.00
23261;BME280;11799;47.740;-3.390;2024-01-15T02:54:23;100938.34;;;3.66;100.00
23261;BME280;11799;47.740;-3.390;2024-01-15T02:56:48;100936.59;;;3.67;100.00
23261;BME280;11799;47.740;-3.390;2024-01-15T02:59:14;100931.22;;;3.70;100.00
23261;BME280;11799;47.740;-3.390;2024-01-15T03:01:39;100925.94;;;3.71;100.00
23261;BME280;11799;47.740;-3.390;2024-01-15T03:04:05;100927.53;;;3.74;100.00
23261;BME280;11799;47.740;-3.390;2024-01-15T03:06:30;100934.59;;;3.72;100.00
23261;BME280;11799;47.740;-3.390;2024-01-15T03:08:56;100927.69;;;3.71;100.00
23261;BME280;11799;47.740;-3.390;2024-01-15T03:11:21;100938.00;;;3.74;100.00
23261;BME280;11799;47.740;-3.390;2024-01-15T03:13:47;100933.63;;;3.74;100.00
23261;BME280;11799;47.740;-3.390;2024-01-15T03:16:12;100920.47;;;3.76;100.00
23261;BME280;11799;47.740;-3.390;2024-01-15T03:18:38;100924.78;;;3.77;100.00
23261;BME280;11799;47.740;-3.390;2024-01-15T03:21:04;100923.09;;;3.76;100.00
23261;BME280;11799;47.740;-3.390;2024-01-15T03:23:30;100922.31;;;3.74;100.00
23261;BME280;11799;47.740;-3.390;2024-01-15T03:25:55;100921.41;;;3.75;100.00
23261;BME280;11799;47.740;-3.390;2024-01-15T03:28:21;100929.16;;;3.76;100.00
23261;BME280;11799;47.740;-3.390;2024-01-15T03:30:46;100925.78;;;3.74;100.00
23261;BME280;11799;47.740;-3.390;2024-01-15T03:33:12;100918.72;;;3.76;100.00
23261;BME280;11799;47.740;-3.390;2024-01-15T03:35:37;100917.94;;;3.74;100.00
23261;BME280;11799;47.740;-3.390;2024-01-15T03:38:03;100913.63;;;3.73;100.00
23261;BME280;11799;47.740;-3.390;2024-01-15T03:40:29;100914.41;;;3.75;100.00
23261;BME280;11799;47.740;-3.390;2024-01-15T03:42:54;100912.78;;;3.73;100.00
23261;BME280;11799;47.740;-3.390;2024-01-15T03:45:20;100913.50;;;3.76;100.00
23261;BME280;11799;47.740;-3.390;2024-01-15T03:47:45;100908.34;;;3.75;100.00
23261;BME280;11799;47.740;-3.390;2024-01-15T03:50:11;100903.13;;;3.75;100.00
23261;BME280;11799;47.740;-3.390;2024-01-15T03:52:37;100900.44;;;3.76;100.00
23261;BME280;11799;47.740;-3.390;2024-01-15T03:55:04;100898.81;;;3.74;100.00
23261;BME280;11799;47.740;-3.390;2024-01-15T03:57:30;100890.84;;;3.77;100.00
23261;BME280;11799;47.740;-3.390;2024-01-15T03:59:55;100885.59;;;3.77;100.00
23261;BME280;11799;47.740;-3.390;2024-01-15T04:02:21;100889.28;;;3.73;100.00
23261;BME280;11799;47.740;-3.390;2024-01-15T04:04:46;100890.13;;;3.73;100.00
23261;BME280;11799;47.740;-3.390;2024-01-15T04:07:12;100890.19;;;3.72;100.00
23261;BME280;11799;47.740;-3.390;2024-01-15T04:09:37;100890.97;;;3.74;100.00
23261;BME280;11799;47.740;-3.390;2024-01-15T04:12:03;100896.97;;;3.76;100.00
23261;BME280;11799;47.740;-3.390;2024-01-15T04:14:29;100896.19;;;3.74;100.00
23261;BME280;11799;47.740;-3.390;2024-01-15T04:16:54;100898.75;;;3.75;100.00
23261;BME280;11799;47.740;-3.390;2024-01-15T04:19:20;100898.75;;;3.75;100.00
23261;BME280;11799;47.740;-3.390;2024-01-15T04:21:45;100908.28;;;3.76;100.00
23261;BME280;11799;47.740;-3.390;2024-01-15T04:24:11;100915.13;;;3.79;100.00
23261;BME280;11799;47.740;-3.390;2024-01-15T04:26:36;100919.34;;;3.81;100.00
23261;BME280;11799;47.740;-3.390;2024-01-15T04:29:02;100914.19;;;3.80;100.00
23261;BME280;11799;47.740;-3.390;2024-01-15T04:31:27;100908.13;;;3.79;100.00
23261;BME280;11799;47.740;-3.390;2024-01-15T04:33:53;100909.81;;;3.80;100.00
23261;BME280;11799;47.740;-3.390;2024-01-15T04:36:18;100912.66;;;3.76;100.00
23261;BME280;11799;47.740;-3.390;2024-01-15T04:38:44;100899.50;;;3.77;100.00
23261;BME280;11799;47.740;-3.390;2024-01-15T04:41:14;100906.28;;;3.81;100.00
23261;BME280;11799;47.740;-3.390;2024-01-15T04:43:41;100893.22;;;3.81;100.00
23261;BME280;11799;47.740;-3.390;2024-01-15T04:46:06;100894.06;;;3.82;100.00
23261;BME280;11799;47.740;-3.390;2024-01-15T04:48:32;100888.00;;;3.81;100.00
23261;BME280;11799;47.740;-3.390;2024-01-15T04:50:58;100878.00;;;3.72;100.00
23261;BME280;11799;47.740;-3.390;2024-01-15T04:53:24;100893.38;;;3.78;100.00
23261;BME280;11799;47.740;-3.390;2024-01-15T04:55:49;100886.31;;;3.80;100.00
23261;BME280;11799;47.740;-3.390;2024-01-15T04:58:15;100886.31;;;3.80;100.00
23261;BME280;11799;47.740;-3.390;2024-01-15T05:00:40;100883.84;;;3.77;100.00
23261;BME280;11799;47.740;-3.390;2024-01-15T05:03:06;100885.38;;;3.81;100.00
23261;BME280;11799;47.740;-3.390;2024-01-15T05:05:31;100885.53;;;3.78;100.00
23261;BME280;11799;47.740;-3.390;2024-01-15T05:07:57;100888.22;;;3.77;100.00
23261;BME280;11799;47.740;-3.390;2024-01-15T05:10:22;100883.75;;;3.79;100.00
23261;BME280;11799;47.740;-3.390;2024-01-15T05:12:48;100876.06;;;3.76;100.00
23261;BME280;11799;47.740;-3.390;2024-01-15T05:15:13;100875.31;;;3.74;100.00
23261;BME280;11799;47.740;-3.390;2024-01-15T05:17:39;100877.53;;;3.81;100.00
23261;BME280;11799;47.740;-3.390;2024-01-15T05:20:05;100869.09;;;3.76;100.00
23261;BME280;11799;47.740;-3.390;2024-01-15T05:22:30;100868.16;;;3.77;100.00
23261;BME280;11799;47.740;-3.390;2024-01-15T05:24:56;100867.16;;;3.80;100.00
23261;BME280;11799;47.740;-3.390;2024-01-15T05:27:21;100851.56;;;3.78;100.00
23261;BME280;11799;47.740;-3.390;2024-01-15T05:29:47;100842.91;;;3.78;100.00
23261;BME280;11799;47.740;-3.390;2024-01-15T05:32:12;100841.06;;;3.80;100.00
23261;BME280;11799;47.740;-3.390;2024-01-15T05:34:38;100840.19;;;3.79;100.00
23261;BME280;11799;47.740;-3.390;2024-01-15T05:37:03;100843.59;;;3.81;100.00
23261;BME280;11799;47.740;-3.390;2024-01-15T05:39:29;100846.28;;;3.80;100.00
23261;BME280;11799;47.740;-3.390;2024-01-15T05:41:54;100834.84;;;3.82;100.00
23261;BME280;11799;47.740;-3.390;2024-01-15T05:44:20;100841.75;;;3.83;100.00
23261;BME280;11799;47.740;-3.390;2024-01-15T05:46:46;100835.81;;;3.80;100.00
23261;BME280;11799;47.740;-3.390;2024-01-15T05:49:11;100839.28;;;3.80;100.00
23261;BME280;11799;47.740;-3.390;2024-01-15T05:51:37;100842.91;;;3.78;100.00
23261;BME280;11799;47.740;-3.390;2024-01-15T05:54:02;100855.88;;;3.79;100.00
23261;BME280;11799;47.740;-3.390;2024-01-15T05:56:28;100849.66;;;3.82;100.00
23261;BME280;11799;47.740;-3.390;2024-01-15T05:58:53;100840.06;;;3.82;100.00
23261;BME280;11799;47.740;-3.390;2024-01-15T06:01:19;100837.44;;;3.82;100.00
23261;BME280;11799;47.740;-3.390;2024-01-15T06:03:45;100839.97;;;3.84;100.00
23261;BME280;11799;47.740;-3.390;2024-01-15T06:06:10;100838.22;;;3.84;100.00
23261;BME280;11799;47.740;-3.390;2024-01-15T06:08:36;100844.22;;;3.86;100.00
23261;BME280;11799;47.740;-3.390;2024-01-15T06:11:02;100848.50;;;3.87;100.00
23261;BME280;11799;47.740;-3.390;2024-01-15T06:13:28;100860.56;;;3.90;100.00
23261;BME280;11799;47.740;-3.390;2024-01-15T06:15:53;100866.56;;;3.92;100.00
23261;BME280;11799;47.740;-3.390;2024-01-15T06:18:19;100857.97;;;3.90;100.00
23261;BME280;11799;47.740;-3.390;2024-01-15T06:20:44;100868.28;;;3.93;100.00
23261;BME280;11799;47.740;-3.390;2024-01-15T06:23:10;100871.66;;;3.95;100.00
23261;BME280;11799;47.740;-3.390;2024-01-15T06:25:35;100873.41;;;3.94;100.00
23261;BME280;11799;47.740;-3.390;2024-01-15T06:28:01;100860.34;;;3.94;100.00
23261;BME280;11799;47.740;-3.390;2024-01-15T06:30:26;100857.81;;;3.93;100.00
23261;BME280;11799;47.740;-3.390;2024-01-15T06:32:52;100850.75;;;3.95;100.00
23261;BME280;11799;47.740;-3.390;2024-01-15T06:35:18;100853.22;;;3.98;100.00
23261;BME280;11799;47.740;-3.390;2024-01-15T06:37:43;100845.38;;;3.98;100.00
23261;BME280;11799;47.740;-3.390;2024-01-15T06:40:09;100841.00;;;3.98;100.00
23261;BME280;11799;47.740;-3.390;2024-01-15T06:42:35;100835.06;;;3.95;100.00
23261;BME280;11799;47.740;-3.390;2024-01-15T06:45:00;100845.53;;;3.95;100.00
23261;BME280;11799;47.740;-3.390;2024-01-15T06:47:26;100854.22;;;3.95;100.00
23261;BME280;11799;47.740;-3.390;2024-01-15T06:49:51;100859.28;;;3.98;100.00
23261;BME280;11799;47.740;-3.390;2024-01-15T06:52:17;100858.34;;;4.00;100.00
23261;BME280;11799;47.740;-3.390;2024-01-15T06:54:43;100868.88;;;3.98;100.00
23261;BME280;11799;47.740;-3.390;2024-01-15T06:57:08;100870.66;;;3.97;100.00
23261;BME280;11799;47.740;-3.390;2024-01-15T06:59:34;100871.50;;;3.98;100.00
23261;BME280;11799;47.740;-3.390;2024-01-15T07:02:01;100877.50;;;4.00;100.00
23261;BME280;11799;47.740;-3.390;2024-01-15T07:04:26;100877.41;;;4.02;100.00
23261;BME280;11799;47.740;-3.390;2024-01-15T07:06:52;100873.81;;;4.04;100.00
23261;BME280;11799;47.740;-3.390;2024-01-15T07:09:17;100878.09;;;4.05;100.00
23261;BME280;11799;47.740;-3.390;2024-01-15T07:11:46;100873.13;;;4.01;100.00
23261;BME280;11799;47.740;-3.390;2024-01-15T07:14:12;100876.31;;;4.06;100.00
23261;BME280;11799;47.740;-3.390;2024-01-15T07:16:38;100863.34;;;4.04;100.00
23261;BME280;11799;47.740;-3.390;2024-01-15T07:19:04;100860.75;;;4.04;100.00
23261;BME280;11799;47.740;-3.390;2024-01-15T07:21:29;100869.41;;;4.05;100.00
23261;BME280;11799;47.740;-3.390;2024-01-15T07:23:55;100871.00;;;4.07;100.00
23261;BME280;11799;47.740;-3.390;2024-01-15T07:26:20;100874.56;;;4.06;100.00
23261;BME280;11799;47.740;-3.390;2024-01-15T07:28:46;100877.94;;;4.08;100.00
23261;BME280;11799;47.740;-3.390;2024-01-15T07:31:12;100882.31;;;4.08;100.00
23261;BME280;11799;47.740;-3.390;2024-01-15T07:33:38;100885.00;;;4.06;100.00
23261;BME280;11799;47.740;-3.390;2024-01-15T07:36:03;100878.94;;;4.06;100.00
23261;BME280;11799;47.740;-3.390;2024-01-15T07:38:29;100883.22;;;4.07;100.00
23261;BME280;11799;47.740;-3.390;2024-01-15T07:40:54;100885.00;;;4.06;100.00
23261;BME280;11799;47.740;-3.390;2024-01-15T07:43:20;100881.66;;;4.04;100.00
23261;BME280;11799;47.740;-3.390;2024-01-15T07:45:46;100888.47;;;4.07;100.00
23261;BME280;11799;47.740;-3.390;2024-01-15T07:48:11;100873.97;;;4.01;100.00
23261;BME280;11799;47.740;-3.390;2024-01-15T07:50:37;100884.94;;;4.08;100.00
23261;BME280;11799;47.740;-3.390;2024-01-15T07:53:03;100887.38;;;4.11;100.00
23261;BME280;11799;47.740;-3.390;2024-01-15T07:55:29;100890.84;;;4.11;100.00
23261;BME280;11799;47.740;-3.390;2024-01-15T07:57:54;100891.69;;;4.12;100.00
23261;BME280;11799;47.740;-3.390;2024-01-15T08:00:24;100897.75;;;4.12;100.00
23261;BME280;11799;47.740;-3.390;2024-01-15T08:02:49;100898.59;;;4.13;100.00
23261;BME280;11799;47.740;-3.390;2024-01-15T08:05:16;100902.91;;;4.14;100.00
23261;BME280;11799;47.740;-3.390;2024-01-15T08:07:42;100908.06;;;4.15;100.00
23261;BME280;11799;47.740;-3.390;2024-01-15T08:10:07;100904.75;;;4.12;100.00
23261;BME280;11799;47.740;-3.390;2024-01-15T08:12:33;100908.06;;;4.15;100.00
23261;BME280;11799;47.740;-3.390;2024-01-15T08:14:59;100902.84;;;4.15;100.00
23261;BME280;11799;47.740;-3.390;2024-01-15T08:17:24;100898.47;;;4.16;100.00
23261;BME280;11799;47.740;-3.390;2024-01-15T08:19:54;100902.16;;;4.12;100.00
23261;BME280;11799;47.740;-3.390;2024-01-15T08:22:20;100885.00;;;4.06;100.00
23261;BME280;11799;47.740;-3.390;2024-01-15T08:24:45;100901.91;;;4.16;100.00
23261;BME280;11799;47.740;-3.390;2024-01-15T08:27:11;100907.16;;;4.16;100.00
23261;BME280;11799;47.740;-3.390;2024-01-15T08:29:36;100908.00;;;4.17;100.00
23261;BME280;11799;47.740;-3.390;2024-01-15T08:32:02;100907.84;;;4.20;100.00
23261;BME280;11799;47.740;-3.390;2024-01-15T08:34:27;100906.06;;;4.20;100.00
23261;BME280;11799;47.740;-3.390;2024-01-15T08:36:53;100899.47;;;4.13;100.00
23261;BME280;11799;47.740;-3.390;2024-01-15T08:39:19;100916.53;;;4.20;100.00
23261;BME280;11799;47.740;-3.390;2024-01-15T08:41:45;100915.00;;;4.16;100.00
23261;BME280;11799;47.740;-3.390;2024-01-15T08:44:12;100922.53;;;4.22;100.00
23261;BME280;11799;47.740;-3.390;2024-01-15T08:46:37;100931.38;;;4.20;100.00
23261;BME280;11799;47.740;-3.390;2024-01-15T08:49:03;100929.44;;;4.23;100.00
23261;BME280;11799;47.740;-3.390;2024-01-15T08:51:29;100935.38;;;4.27;100.00
23261;BME280;11799;47.740;-3.390;2024-01-15T08:53:56;100934.44;;;4.28;100.00
23261;BME280;11799;47.740;-3.390;2024-01-15T08:56:22;100932.84;;;4.25;100.00
23261;BME280;11799;47.740;-3.390;2024-01-15T08:58:47;100937.84;;;4.30;100.00
23261;BME280;11799;47.740;-3.390;2024-01-15T09:01:13;100951.69;;;4.32;100.00
23261;BME280;11799;47.740;-3.390;2024-01-15T09:03:39;100956.81;;;4.34;100.00
23261;BME280;11799;47.740;-3.390;2024-01-15T09:06:07;100948.06;;;4.35;100.00
23261;BME280;11799;47.740;-3.390;2024-01-15T09:08:32;100948.84;;;4.37;100.00
23261;BME280;11799;47.740;-3.390;2024-01-15T09:10:58;100949.59;;;4.39;100.00
23261;BME280;11799;47.740;-3.390;2024-01-15T09:13:23;100951.28;;;4.40;100.00
23261;BME280;11799;47.740;-3.390;2024-01-15T09:15:49;100954.69;;;4.42;100.00
23261;BME280;11799;47.740;-3.390;2024-01-15T09:18:14;100952.16;;;4.40;100.00
23261;BME280;11799;47.740;-3.390;2024-01-15T09:20:40;100953.84;;;4.41;100.00
23261;BME280;11799;47.740;-3.390;2024-01-15T09:23:05;100965.84;;;4.45;100.00
23261;BME280;11799;47.740;-3.390;2024-01-15T09:25:31;100955.31;;;4.47;100.00
23261;BME280;11799;47.740;-3.390;2024-01-15T09:27:57;100958.00;;;4.45;100.00
23261;BME280;11799;47.740;-3.390;2024-01-15T09:30:23;100955.16;;;4.50;100.00
23261;BME280;11799;47.740;-3.390;2024-01-15T09:32:48;100963.69;;;4.53;100.00
23261;BME280;11799;47.740;-3.390;2024-01-15T09:35:14;100959.38;;;4.52;100.00
23261;BME280;11799;47.740;-3.390;2024-01-15T09:37:41;100966.16;;;4.56;100.00
23261;BME280;11799;47.740;-3.390;2024-01-15T09:40:11;100961.84;;;4.55;100.00
23261;BME280;11799;47.740;-3.390;2024-01-15T09:42:38;100963.53;;;4.56;100.00
23261;BME280;11799;47.740;-3.390;2024-01-15T09:45:05;100965.91;;;4.61;100.00
23261;BME280;11799;47.740;-3.390;2024-01-15T09:47:31;100967.50;;;4.63;100.00
23261;BME280;11799;47.740;-3.390;2024-01-15T09:49:57;100960.00;;;4.57;100.00
23261;BME280;11799;47.740;-3.390;2024-01-15T09:52:24;100979.34;;;4.71;100.00
23261;BME280;11799;47.740;-3.390;2024-01-15T09:54:50;100972.25;;;4.73;100.00
23261;BME280;11799;47.740;-3.390;2024-01-15T09:57:17;100967.03;;;4.73;100.00
23261;BME280;11799;47.740;-3.390;2024-01-15T09:59:43;100968.56;;;4.77;100.00
23261;BME280;11799;47.740;-3.390;2024-01-15T10:02:12;100964.19;;;4.77;100.00
23261;BME280;11799;47.740;-3.390;2024-01-15T10:04:39;100966.78;;;4.77;100.00
23261;BME280;11799;47.740;-3.390;2024-01-15T10:07:06;100967.56;;;4.79;100.00
23261;BME280;11799;47.740;-3.390;2024-01-15T10:09:33;100969.19;;;4.82;100.00
23261;BME280;11799;47.740;-3.390;2024-01-15T10:11:59;100964.88;;;4.81;100.00
23261;BME280;11799;47.740;-3.390;2024-01-15T10:14:24;100977.66;;;4.87;100.00
23261;BME280;11799;47.740;-3.390;2024-01-15T10:16:50;100980.25;;;4.87;100.00
23261;BME280;11799;47.740;-3.390;2024-01-15T10:19:15;100985.34;;;4.90;100.00
23261;BME280;11799;47.740;-3.390;2024-01-15T10:21:41;100982.63;;;4.91;100.00
23261;BME280;11799;47.740;-3.390;2024-01-15T10:24:06;100993.09;;;4.91;100.00
23261;BME280;11799;47.740;-3.390;2024-01-15T10:26:33;100990.50;;;4.91;100.00
23261;BME280;11799;47.740;-3.390;2024-01-15T10:28:59;100989.41;;;4.95;100.00
23261;BME280;11799;47.740;-3.390;2024-01-15T10:31:26;100989.25;;;4.98;100.00
23261;BME280;11799;47.740;-3.390;2024-01-15T10:33:51;100989.34;;;4.97;100.00
23261;BME280;11799;47.740;-3.390;2024-01-15T10:36:17;100995.19;;;5.02;100.00
23261;BME280;11799;47.740;-3.390;2024-01-15T10:38:44;100999.41;;;5.05;100.00
23261;BME280;11799;47.740;-3.390;2024-01-15T10:41:10;101004.56;;;5.06;100.00
23261;BME280;11799;47.740;-3.390;2024-01-15T10:43:35;100996.72;;;5.06;100.00
23261;BME280;11799;47.740;-3.390;2024-01-15T10:46:01;100995.94;;;5.04;100.00
23261;BME280;11799;47.740;-3.390;2024-01-15T10:48:27;100999.16;;;5.09;100.00
23261;BME280;11799;47.740;-3.390;2024-01-15T10:50:55;101006.19;;;5.09;100.00
23261;BME280;11799;47.740;-3.390;2024-01-15T10:53:23;100998.31;;;5.09;100.00
23261;BME280;11799;47.740;-3.390;2024-01-15T10:55:50;101000.09;;;5.08;100.00
23261;BME280;11799;47.740;-3.390;2024-01-15T10:58:20;100994.69;;;5.11;100.00
23261;BME280;11799;47.740;-3.390;2024-01-15T11:00:46;100995.47;;;5.13;100.00
23261;BME280;11799;47.740;-3.390;2024-01-15T11:03:12;100989.22;;;5.16;100.00
23261;BME280;11799;47.740;-3.390;2024-01-15T11:05:38;100992.34;;;5.22;100.00
23261;BME280;11799;47.740;-3.390;2024-01-15T11:08:08;100993.69;;;5.29;100.00
23261;BME280;11799;47.740;-3.390;2024-01-15T11:10:41;101002.25;;;5.33;100.00
23261;BME280;11799;47.740;-3.390;2024-01-15T11:13:13;101011.63;;;5.37;100.00
23261;BME280;11799;47.740;-3.390;2024-01-15T11:16:15;101000.75;;;5.45;100.00
23261;BME280;11799;47.740;-3.390;2024-01-15T11:26:45;101008.38;;;5.65;100.00
23261;BME280;11799;47.740;-3.390;2024-01-15T11:34:21;101011.28;;;5.76;100.00
23261;BME280;11799;47.740;-3.390;2024-01-15T11:37:07;101017.91;;;5.82;100.00
23261;BME280;11799;47.740;-3.390;2024-01-15T11:41:59;101017.44;;;5.91;100.00
23261;BME280;11799;47.740;-3.390;2024-01-15T11:44:25;101020.00;;;5.92;100.00
23261;BME280;11799;47.740;-3.390;2024-01-15T11:47:02;101024.22;;;5.95;100.00
23261;BME280;11799;47.740;-3.390;2024-01-15T11:52:11;101044.78;;;6.03;100.00
23261;BME280;11799;47.740;-3.390;2024-01-15T11:54:38;101050.44;;;6.11;100.00
23261;BME280;11799;47.740;-3.390;2024-01-15T11:57:10;101036.22;;;6.15;100.00
23261;BME280;11799;47.740;-3.390;2024-01-15T11:59:41;101047.41;;;6.18;100.00
23261;BME280;11799;47.740;-3.390;2024-01-15T12:02:08;101045.34;;;6.23;100.00
23261;BME280;11799;47.740;-3.390;2024-01-15T12:04:36;101035.63;;;6.25;100.00
23261;BME280;11799;47.740;-3.390;2024-01-15T12:07:02;101046.72;;;6.31;100.00
23261;BME280;11799;47.740;-3.390;2024-01-15T12:09:27;101034.53;;;6.29;100.00
23261;BME280;11799;47.740;-3.390;2024-01-15T12:12:07;101041.56;;;6.29;100.00
23261;BME280;11799;47.740;-3.390;2024-01-15T12:14:38;101048.81;;;6.24;100.00
23261;BME280;11799;47.740;-3.390;2024-01-15T12:17:03;101049.94;;;6.20;100.00
23261;BME280;11799;47.740;-3.390;2024-01-15T12:19:29;101034.97;;;6.22;100.00
23261;BME280;11799;47.740;-3.390;2024-01-15T12:21:54;101035.97;;;6.19;100.00
23261;BME280;11799;47.740;-3.390;2024-01-15T12:24:20;101030.13;;;6.14;100.00
23261;BME280;11799;47.740;-3.390;2024-01-15T12:26:46;101024.81;;;6.16;100.00
23261;BME280;11799;47.740;-3.390;2024-01-15T12:29:11;101012.63;;;6.15;100.00
23261;BME280;11799;47.740;-3.390;2024-01-15T12:31:37;101020.56;;;6.13;100.00
23261;BME280;11799;47.740;-3.390;2024-01-15T12:34:02;101013.38;;;6.17;100.00
23261;BME280;11799;47.740;-3.390;2024-01-15T12:36:31;101014.06;;;6.20;100.00
23261;BME280;11799;47.740;-3.390;2024-01-15T12:39:00;101014.91;;;6.21;100.00
23261;BME280;11799;47.740;-3.390;2024-01-15T12:41:26;101006.94;;;6.22;100.00
23261;BME280;11799;47.740;-3.390;2024-01-15T12:43:51;100998.25;;;6.22;100.00
23261;BME280;11799;47.740;-3.390;2024-01-15T12:46:17;101008.38;;;6.28;100.00
23261;BME280;11799;47.740;-3.390;2024-01-15T12:48:44;101010.91;;;6.29;100.00
23261;BME280;11799;47.740;-3.390;2024-01-15T12:51:10;101006.53;;;6.30;100.00
23261;BME280;11799;47.740;-3.390;2024-01-15T12:53:35;100995.28;;;6.28;100.00
23261;BME280;11799;47.740;-3.390;2024-01-15T12:56:01;101000.78;;;6.23;100.00